createdAt,value
2022-08-22T00:01:15.290Z,100.00
2022-08-22T00:02:47.978Z,76.33
2022-08-22T00:02:49.632Z,93.79
2022-08-22T00:03:08.939Z,99.17
2022-08-22T00:03:09.131Z,98.78
2022-08-22T00:03:54.992Z,100.00
2022-08-22T00:06:31.818Z,100.00
2022-08-22T00:09:12.011Z,100.00
2022-08-22T00:12:02.664Z,100.00
2022-08-22T00:14:38.425Z,100.00
2022-08-22T00:17:19.533Z,100.00
2022-08-22T00:19:52.767Z,100.00
2022-08-22T00:22:26.972Z,100.00
2022-08-22T00:25:04.082Z,100.00
2022-08-22T00:27:44.908Z,100.00
2022-08-22T00:30:16.746Z,100.00
2022-08-22T00:32:52.059Z,100.00
2022-08-22T00:35:24.550Z,100.00
2022-08-22T00:38:02.799Z,100.00
2022-08-22T00:40:46.162Z,100.00
2022-08-22T00:43:40.375Z,100.00
2022-08-22T00:46:27.575Z,100.00
2022-08-22T00:49:15.289Z,100.00
2022-08-22T00:52:14.362Z,100.00
2022-08-22T00:55:04.546Z,100.00
2022-08-22T00:57:52.104Z,100.00
2022-08-22T01:00:24.656Z,100.00
2022-08-22T01:03:21.037Z,100.00
2022-08-22T01:06:04.425Z,100.00
2022-08-22T01:08:50.928Z,100.00
2022-08-22T01:11:36.374Z,100.00
2022-08-22T01:14:34.266Z,100.00
2022-08-22T01:17:22.001Z,100.00
2022-08-22T01:20:44.681Z,100.00
2022-08-22T01:23:48.866Z,100.00
2022-08-22T01:26:47.589Z,100.00
2022-08-22T01:29:51.011Z,100.00
2022-08-22T01:32:57.991Z,100.00
2022-08-22T01:35:37.871Z,100.00
2022-08-22T01:38:26.871Z,100.00
2022-08-22T01:41:26.174Z,100.00
2022-08-22T01:44:11.353Z,100.00
2022-08-22T01:46:50.808Z,100.00
2022-08-22T01:49:25.490Z,100.00
2022-08-22T01:52:00.997Z,100.00
2022-08-22T01:54:42.770Z,100.00
2022-08-22T01:57:12.956Z,100.00
2022-08-22T01:59:44.480Z,100.00
2022-08-22T02:02:41.307Z,100.00
2022-08-22T02:05:20.536Z,100.00
2022-08-22T02:07:57.662Z,100.00
2022-08-22T02:10:42.484Z,100.00
2022-08-22T02:13:28.171Z,100.00
2022-08-22T02:16:07.701Z,100.00
2022-08-22T02:18:52.151Z,100.00
2022-08-22T02:21:27.293Z,100.00
2022-08-22T02:24:02.749Z,100.00
2022-08-22T02:26:44.409Z,100.00
2022-08-22T02:29:16.792Z,100.00
2022-08-22T02:31:53.470Z,100.00
2022-08-22T02:34:32.026Z,100.00
2022-08-22T02:37:08.461Z,100.00
2022-08-22T02:39:44.188Z,100.00
2022-08-22T02:42:20.138Z,100.00
2022-08-22T02:45:04.917Z,100.00
2022-08-22T02:47:41.119Z,100.00
2022-08-22T02:50:18.629Z,100.00
2022-08-22T02:52:58.757Z,100.00
2022-08-22T02:55:43.602Z,100.00
2022-08-22T02:58:20.909Z,100.00
2022-08-22T03:01:10.071Z,100.00
2022-08-22T03:03:41.953Z,100.00
2022-08-22T03:06:32.893Z,100.00
2022-08-22T03:09:08.713Z,100.00
2022-08-22T03:11:41.933Z,100.00
2022-08-22T03:14:17.409Z,100.00
2022-08-22T03:16:50.445Z,100.00
2022-08-22T03:19:24.537Z,100.00
2022-08-22T03:21:59.319Z,100.00
2022-08-22T03:24:36.656Z,100.00
2022-08-22T03:27:13.343Z,100.00
2022-08-22T03:30:02.407Z,100.00
2022-08-22T03:32:50.183Z,100.00
2022-08-22T03:35:50.576Z,100.00
2022-08-22T03:38:24.800Z,100.00
2022-08-22T03:41:10.358Z,100.00
2022-08-22T03:44:04.083Z,100.00
2022-08-22T03:47:10.851Z,100.00
2022-08-22T03:49:49.725Z,100.00
2022-08-22T03:53:02.342Z,100.00
2022-08-22T03:55:49.990Z,100.00
2022-08-22T03:58:42.687Z,100.00
2022-08-22T04:01:38.048Z,100.00
2022-08-22T04:04:38.619Z,100.00
2022-08-22T04:07:35.199Z,100.00
2022-08-22T04:10:39.005Z,100.00
2022-08-22T04:13:43.293Z,100.00
2022-08-22T04:16:48.831Z,100.00
2022-08-22T04:19:32.077Z,100.00
2022-08-22T04:22:23.661Z,100.00
2022-08-22T04:24:56.807Z,100.00
2022-08-22T04:27:29.854Z,100.00
2022-08-22T04:30:06.715Z,100.00
2022-08-22T04:32:42.526Z,100.00
2022-08-22T04:35:18.747Z,100.00
2022-08-22T04:37:53.312Z,100.00
2022-08-22T04:40:26.793Z,100.00
2022-08-22T04:43:00.197Z,100.00
2022-08-22T04:45:37.745Z,100.00
2022-08-22T04:48:12.428Z,100.00
2022-08-22T04:50:48.108Z,100.00
2022-08-22T04:53:28.992Z,100.00
2022-08-22T04:56:08.050Z,100.00
2022-08-22T04:58:47.657Z,100.00
2022-08-22T05:01:19.167Z,100.00
2022-08-22T05:03:55.691Z,100.00
2022-08-22T05:06:29.548Z,100.00
2022-08-22T05:09:04.087Z,100.00
2022-08-22T05:11:35.540Z,100.00
2022-08-22T05:14:10.109Z,100.00
2022-08-22T05:16:42.891Z,100.00
2022-08-22T05:19:22.983Z,100.00
2022-08-22T05:21:57.037Z,100.00
2022-08-22T05:24:31.100Z,100.00
2022-08-22T05:27:09.213Z,100.00
2022-08-22T05:29:40.953Z,100.00
2022-08-22T05:32:17.545Z,100.00
2022-08-22T05:34:48.802Z,100.00
2022-08-22T05:37:24.303Z,100.00
2022-08-22T05:39:57.742Z,100.00
2022-08-22T05:42:29.481Z,100.00
2022-08-22T05:44:58.460Z,100.00
2022-08-22T05:47:36.106Z,100.00
2022-08-22T05:50:09.669Z,100.00
2022-08-22T05:52:51.920Z,100.00
2022-08-22T05:55:28.678Z,100.00
2022-08-22T05:58:27.549Z,100.00
2022-08-22T06:01:20.302Z,100.00
2022-08-22T06:03:58.403Z,100.00
2022-08-22T06:06:30.789Z,100.00
2022-08-22T06:09:05.317Z,100.00
2022-08-22T06:11:41.541Z,100.00
2022-08-22T06:14:28.996Z,100.00
2022-08-22T06:17:05.293Z,93.25
2022-08-22T06:19:38.345Z,86.80
2022-08-22T06:22:09.142Z,81.45
2022-08-22T06:24:41.092Z,75.38
2022-08-22T06:27:13.880Z,72.74
2022-08-22T06:29:48.863Z,74.31
2022-08-22T06:32:44.371Z,75.71
2022-08-22T06:35:25.530Z,77.22
2022-08-22T06:38:00.580Z,77.67
2022-08-22T06:40:29.660Z,79.24
2022-08-22T06:42:59.812Z,80.05
2022-08-22T06:45:31.900Z,81.73
2022-08-22T06:48:14.494Z,81.53
2022-08-22T06:50:46.425Z,79.98
2022-08-22T06:53:19.528Z,78.68
2022-08-22T06:55:50.306Z,76.78
2022-08-22T06:58:22.012Z,75.55
2022-08-22T07:01:05.691Z,75.53
2022-08-22T07:03:44.864Z,76.38
2022-08-22T07:06:17.109Z,75.20
2022-08-22T07:08:47.512Z,75.15
2022-08-22T07:11:21.698Z,75.51
2022-08-22T07:13:57.526Z,74.92
2022-08-22T07:16:32.757Z,75.68
2022-08-22T07:19:01.903Z,75.37
2022-08-22T07:21:32.893Z,74.53
2022-08-22T07:24:06.472Z,74.37
2022-08-22T07:26:44.207Z,77.01
2022-08-22T07:29:22.018Z,76.05
2022-08-22T07:32:07.650Z,75.08
2022-08-22T07:34:50.275Z,75.67
2022-08-22T07:37:29.479Z,76.30
2022-08-22T07:40:12.962Z,76.59
2022-08-22T07:42:48.786Z,76.44
2022-08-22T07:45:22.197Z,75.95
2022-08-22T07:48:04.474Z,76.94
2022-08-22T07:50:39.328Z,75.64
2022-08-22T07:53:18.990Z,75.93
2022-08-22T07:55:50.395Z,76.17
2022-08-22T07:58:20.752Z,76.19
2022-08-22T08:00:50.356Z,75.46
2022-08-22T08:03:22.728Z,75.66
2022-08-22T08:05:51.510Z,76.53
2022-08-22T08:08:24.811Z,76.74
2022-08-22T08:10:57.209Z,76.79
2022-08-22T08:13:30.520Z,76.69
2022-08-22T08:16:00.557Z,76.74
2022-08-22T08:18:33.852Z,74.55
2022-08-22T08:21:06.145Z,71.67
2022-08-22T08:23:39.715Z,70.92
2022-08-22T08:26:15.785Z,71.74
2022-08-22T08:28:49.657Z,71.55
2022-08-22T08:31:24.827Z,68.72
2022-08-22T08:34:01.346Z,69.06
2022-08-22T08:36:40.499Z,69.25
2022-08-22T08:39:20.476Z,67.71
2022-08-22T08:42:24.221Z,67.04
2022-08-22T08:45:21.929Z,65.24
2022-08-22T08:48:09.930Z,63.58
2022-08-22T08:50:54.187Z,63.03
2022-08-22T08:53:58.029Z,62.54
2022-08-22T08:56:36.627Z,60.88
2022-08-22T08:59:19.053Z,61.67
2022-08-22T09:02:09.371Z,60.34
2022-08-22T09:05:14.636Z,58.83
2022-08-22T09:08:00.780Z,57.20
2022-08-22T09:10:59.872Z,55.02
2022-08-22T09:13:49.846Z,54.69
2022-08-22T09:16:35.990Z,53.84
2022-08-22T09:19:28.936Z,53.89
2022-08-22T09:22:23.292Z,52.69
2022-08-22T09:25:11.710Z,50.67
2022-08-22T09:27:52.694Z,48.77
2022-08-22T09:30:28.530Z,46.26
2022-08-22T09:33:03.479Z,45.84
2022-08-22T09:35:38.852Z,45.38
2022-08-22T09:38:29.120Z,46.59
2022-08-22T09:41:10.161Z,46.95
2022-08-22T09:43:44.749Z,47.10
2022-08-22T09:46:21.388Z,48.72
2022-08-22T09:49:06.479Z,48.93
2022-08-22T09:51:40.822Z,48.73
2022-08-22T09:54:24.357Z,47.98
2022-08-22T09:57:17.272Z,46.96
2022-08-22T10:00:02.055Z,46.36
2022-08-22T10:02:43.486Z,46.75
2022-08-22T10:05:40.324Z,48.01
2022-08-22T10:08:20.214Z,46.12
2022-08-22T10:11:09.306Z,47.11
2022-08-22T10:13:57.274Z,46.32
2022-08-22T10:16:53.077Z,46.02
2022-08-22T10:19:28.686Z,45.80
2022-08-22T10:22:29.998Z,45.31
2022-08-22T10:25:09.157Z,43.79
2022-08-22T10:27:51.902Z,40.52
2022-08-22T10:30:23.068Z,39.22
2022-08-22T10:33:00.928Z,38.59
2022-08-22T10:35:33.931Z,37.89
2022-08-22T10:38:12.877Z,39.19
2022-08-22T10:40:53.054Z,37.45
2022-08-22T10:43:32.698Z,36.64
2022-08-22T10:46:06.770Z,38.61
2022-08-22T10:48:44.677Z,38.75
2022-08-22T10:51:23.374Z,37.80
2022-08-22T10:54:02.223Z,38.68
2022-08-22T10:56:39.312Z,38.62
2022-08-22T10:59:22.876Z,38.54
2022-08-22T11:01:58.892Z,37.33
2022-08-22T11:04:43.503Z,32.69
2022-08-22T11:07:19.108Z,30.29
2022-08-22T11:10:00.573Z,30.29
2022-08-22T11:12:36.524Z,31.95
2022-08-22T11:15:28.363Z,32.54
2022-08-22T11:18:30.392Z,32.15
2022-08-22T11:21:03.397Z,33.23
2022-08-22T11:23:42.634Z,33.22
2022-08-22T11:26:35.845Z,34.05
2022-08-22T11:29:33.004Z,30.41
2022-08-22T11:32:11.166Z,31.05
2022-08-22T11:34:50.937Z,29.37
2022-08-22T11:37:45.206Z,29.44
2022-08-22T11:40:29.280Z,29.71
2022-08-22T11:43:16.399Z,29.77
2022-08-22T11:45:50.635Z,28.08
2022-08-22T11:48:28.534Z,27.65
2022-08-22T11:51:13.214Z,27.77
2022-08-22T11:53:48.309Z,26.79
2022-08-22T11:56:24.550Z,27.04
2022-08-22T11:59:02.078Z,28.96
2022-08-22T12:01:39.365Z,28.94
2022-08-22T12:04:17.405Z,28.13
2022-08-22T12:07:02.053Z,28.79
2022-08-22T12:09:50.753Z,26.81
2022-08-22T12:12:36.807Z,26.95
2022-08-22T12:15:17.065Z,24.42
2022-08-22T12:18:20.051Z,24.04
2022-08-22T12:21:12.575Z,24.91
2022-08-22T12:24:11.104Z,25.84
2022-08-22T12:26:57.708Z,26.43
2022-08-22T12:29:40.002Z,26.02
2022-08-22T12:33:04.162Z,27.86
2022-08-22T12:35:43.105Z,27.21
2022-08-22T12:38:36.073Z,29.90
2022-08-22T12:41:48.188Z,28.78
2022-08-22T12:44:34.284Z,27.38
2022-08-22T12:47:18.149Z,27.60
2022-08-22T12:50:14.052Z,26.75
2022-08-22T12:52:57.186Z,25.91
2022-08-22T12:55:43.891Z,25.09
2022-08-22T12:58:22.384Z,24.30
2022-08-22T13:00:52.609Z,23.97
2022-08-22T13:03:25.995Z,24.63
2022-08-22T13:06:00.662Z,24.85
2022-08-22T13:08:32.085Z,24.16
2022-08-22T13:11:02.977Z,24.09
2022-08-22T13:13:40.821Z,24.69
2022-08-22T13:16:12.225Z,24.82
2022-08-22T13:18:53.423Z,24.35
2022-08-22T13:21:32.044Z,25.15
2022-08-22T13:24:10.502Z,25.66
2022-08-22T13:26:49.124Z,24.16
2022-08-22T13:29:26.145Z,24.46
2022-08-22T13:32:01.458Z,24.50
2022-08-22T13:34:40.551Z,24.67
2022-08-22T13:37:17.360Z,24.21
2022-08-22T13:39:52.630Z,25.27
2022-08-22T13:42:29.926Z,25.01
2022-08-22T13:45:05.063Z,25.39
2022-08-22T13:47:39.749Z,25.44
2022-08-22T13:50:14.622Z,25.62
2022-08-22T13:52:52.453Z,26.82
2022-08-22T13:55:35.131Z,27.09
2022-08-22T13:58:13.529Z,29.62
2022-08-22T14:01:17.456Z,31.00
2022-08-22T14:03:49.829Z,30.96
2022-08-22T14:06:37.277Z,30.70
2022-08-22T14:09:29.427Z,30.27
2022-08-22T14:12:12.640Z,31.23
2022-08-22T14:14:46.126Z,31.80
2022-08-22T14:17:18.096Z,32.23
2022-08-22T14:19:59.762Z,31.50
2022-08-22T14:22:34.828Z,33.58
2022-08-22T14:25:10.360Z,33.05
2022-08-22T14:27:43.849Z,33.72
2022-08-22T14:30:18.884Z,35.15
2022-08-22T14:32:52.858Z,35.04
2022-08-22T14:35:34.647Z,35.14
2022-08-22T14:38:29.784Z,35.71
2022-08-22T14:41:05.351Z,34.90
2022-08-22T14:43:49.796Z,35.06
2022-08-22T14:46:27.713Z,35.44
2022-08-22T14:49:14.755Z,35.84
2022-08-22T14:51:50.850Z,35.32
2022-08-22T14:54:23.318Z,35.40
2022-08-22T14:57:01.292Z,35.24
2022-08-22T14:59:39.352Z,35.44
2022-08-22T15:02:13.849Z,36.18
2022-08-22T15:04:46.690Z,36.03
2022-08-22T15:07:24.157Z,35.53
2022-08-22T15:09:56.268Z,36.09
2022-08-22T15:12:30.638Z,36.09
2022-08-22T15:15:01.846Z,36.03
2022-08-22T15:17:35.538Z,36.12
2022-08-22T15:20:28.464Z,36.23
2022-08-22T15:23:01.583Z,36.61
2022-08-22T15:25:35.160Z,36.25
2022-08-22T15:28:14.168Z,37.16
2022-08-22T15:30:46.657Z,36.81
2022-08-22T15:33:24.556Z,36.96
2022-08-22T15:36:07.406Z,36.92
2022-08-22T15:38:40.443Z,36.65
2022-08-22T15:41:41.800Z,38.51
2022-08-22T15:44:32.596Z,38.06
2022-08-22T15:47:23.794Z,38.18
2022-08-22T15:49:58.272Z,38.69
2022-08-22T15:52:30.997Z,38.55
2022-08-22T15:55:22.897Z,38.16
2022-08-22T15:58:05.077Z,37.13
2022-08-22T16:00:43.441Z,37.48
2022-08-22T16:03:25.513Z,38.38
2022-08-22T16:05:58.763Z,38.57
2022-08-22T16:08:33.007Z,38.58
2022-08-22T16:11:20.785Z,38.66
2022-08-22T16:14:22.367Z,39.24
2022-08-22T16:17:02.010Z,38.95
2022-08-22T16:19:31.805Z,38.94
2022-08-22T16:22:11.318Z,38.66
2022-08-22T16:25:06.577Z,39.51
2022-08-22T16:27:53.780Z,39.37
2022-08-22T16:30:36.082Z,39.32
2022-08-22T16:33:06.957Z,39.47
2022-08-22T16:36:25.577Z,41.08
2022-08-22T16:38:57.799Z,41.43
2022-08-22T16:41:30.288Z,41.34
2022-08-22T16:44:22.664Z,40.98
2022-08-22T16:46:53.949Z,41.27
2022-08-22T16:49:29.446Z,41.82
2022-08-22T16:52:33.409Z,42.08
2022-08-22T16:55:04.629Z,43.80
2022-08-22T16:57:59.406Z,42.89
2022-08-22T17:00:42.110Z,43.08
2022-08-22T17:03:19.609Z,43.43
2022-08-22T17:05:56.225Z,43.53
2022-08-22T17:08:42.258Z,43.78
2022-08-22T17:11:33.987Z,43.83
2022-08-22T17:14:17.542Z,44.02
2022-08-22T17:17:09.297Z,43.99
2022-08-22T17:23:20.658Z,45.01
2022-08-22T17:26:00.723Z,45.19
2022-08-22T17:28:40.269Z,46.25
2022-08-22T17:31:18.073Z,45.67
2022-08-22T17:34:12.121Z,45.65
2022-08-22T17:36:57.057Z,45.89
2022-08-22T17:39:39.130Z,47.15
2022-08-22T17:42:37.464Z,46.77
2022-08-22T17:45:18.111Z,48.99
2022-08-22T17:47:53.332Z,46.70
2022-08-22T17:50:28.026Z,47.18
2022-08-22T17:53:04.316Z,47.88
2022-08-22T17:55:39.939Z,49.12
2022-08-22T17:58:43.688Z,51.73
2022-08-22T18:01:16.381Z,51.64
2022-08-22T18:03:52.898Z,52.21
2022-08-22T18:06:25.898Z,52.46
2022-08-22T18:09:16.005Z,52.62
2022-08-22T18:11:51.347Z,51.86
2022-08-22T18:14:30.345Z,52.38
2022-08-22T18:17:00.899Z,53.96
2022-08-22T18:19:44.206Z,53.06
2022-08-22T18:22:20.674Z,55.70
2022-08-22T18:24:56.368Z,55.16
2022-08-22T18:27:35.242Z,56.08
2022-08-22T18:30:16.904Z,57.17
2022-08-22T18:32:56.371Z,57.54
2022-08-22T18:35:29.893Z,58.12
2022-08-22T18:38:12.202Z,60.87
2022-08-22T18:40:55.550Z,63.37
2022-08-22T18:43:36.190Z,65.21
2022-08-22T18:46:31.678Z,66.15
2022-08-22T18:49:17.798Z,66.22
2022-08-22T18:52:27.140Z,68.00
2022-08-22T18:55:19.284Z,69.01
2022-08-22T18:58:03.946Z,69.68
2022-08-22T19:01:04.136Z,70.69
2022-08-22T19:03:45.283Z,71.88
2022-08-22T19:06:37.920Z,72.88
2022-08-22T19:09:32.010Z,73.40
2022-08-22T19:12:08.115Z,74.25
2022-08-22T19:15:05.864Z,75.24
2022-08-22T19:17:58.960Z,75.73
2022-08-22T19:20:47.510Z,76.24
2022-08-22T19:23:50.175Z,77.05
2022-08-22T19:26:29.613Z,77.74
2022-08-22T19:29:00.367Z,77.81
2022-08-22T19:31:47.862Z,78.98
2022-08-22T19:34:38.683Z,79.21
2022-08-22T19:37:34.111Z,78.70
2022-08-22T19:40:06.112Z,80.50
2022-08-22T19:42:38.768Z,81.63
2022-08-22T19:45:19.583Z,81.60
2022-08-22T19:47:59.394Z,83.44
2022-08-22T19:50:34.016Z,83.55
2022-08-22T19:53:32.373Z,84.49
2022-08-22T19:56:12.723Z,85.05
2022-08-22T19:58:53.564Z,84.87
2022-08-22T20:01:37.035Z,85.91
2022-08-22T20:04:20.485Z,86.07
2022-08-22T20:06:59.209Z,87.32
2022-08-22T20:09:40.260Z,86.89
2022-08-22T20:12:15.964Z,87.34
2022-08-22T20:14:47.087Z,87.71
2022-08-22T20:17:39.599Z,88.03
2022-08-22T20:20:19.096Z,87.86
2022-08-22T20:22:55.470Z,88.55
2022-08-22T20:25:42.468Z,89.07
2022-08-22T20:28:30.849Z,88.75
2022-08-22T20:31:02.164Z,88.35
2022-08-22T20:33:37.099Z,88.63
2022-08-22T20:36:18.490Z,89.14
2022-08-22T20:39:01.632Z,90.17
2022-08-22T20:41:35.608Z,90.70
2022-08-22T20:44:13.258Z,90.90
2022-08-22T20:46:53.196Z,90.18
2022-08-22T20:49:25.012Z,90.38
2022-08-22T20:51:59.324Z,91.30
2022-08-22T20:54:30.137Z,91.53
2022-08-22T20:57:01.394Z,90.50
2022-08-22T20:59:35.665Z,90.69
2022-08-22T21:02:09.720Z,90.96
2022-08-22T21:04:53.727Z,90.42
2022-08-22T21:07:26.903Z,89.09
2022-08-22T21:10:20.286Z,89.84
2022-08-22T21:13:07.653Z,89.39
2022-08-22T21:15:38.278Z,88.66
2022-08-22T21:18:07.592Z,89.02
2022-08-22T21:20:38.558Z,88.68
2022-08-22T21:23:20.625Z,88.70
2022-08-22T21:25:58.094Z,89.67
2022-08-22T21:28:29.857Z,89.03
2022-08-22T21:30:58.951Z,89.35
2022-08-22T21:33:27.494Z,89.79
2022-08-22T21:35:58.396Z,89.92
2022-08-22T21:38:29.117Z,90.13
2022-08-22T21:41:05.250Z,90.24
2022-08-22T21:43:36.768Z,90.20
2022-08-22T21:46:06.901Z,90.34
2022-08-22T21:48:39.807Z,90.79
2022-08-22T21:51:42.774Z,90.53
2022-08-22T21:54:28.683Z,91.43
2022-08-22T21:56:59.817Z,91.83
2022-08-22T21:59:52.285Z,92.45
2022-08-22T22:02:37.137Z,93.54
2022-08-22T22:05:10.335Z,94.13
2022-08-22T22:07:41.959Z,94.11
2022-08-22T22:10:14.310Z,95.07
2022-08-22T22:12:44.094Z,95.49
2022-08-22T22:15:16.752Z,95.68
2022-08-22T22:17:45.405Z,95.61
2022-08-22T22:20:16.168Z,96.76
2022-08-22T22:22:46.216Z,97.19
2022-08-22T22:25:38.805Z,97.36
2022-08-22T22:28:10.104Z,98.91
2022-08-22T22:30:38.663Z,100.00
2022-08-22T22:33:07.146Z,100.00
2022-08-22T22:35:38.214Z,100.00
2022-08-22T22:38:07.628Z,100.00
2022-08-22T22:40:37.486Z,100.00
2022-08-22T22:43:06.402Z,100.00
2022-08-22T22:45:34.987Z,100.00
2022-08-22T22:48:03.822Z,100.00
2022-08-22T22:50:33.014Z,100.00
2022-08-22T22:53:01.439Z,100.00
2022-08-22T22:55:29.931Z,100.00
2022-08-22T22:58:01.477Z,100.00
2022-08-22T23:00:33.163Z,100.00
2022-08-22T23:03:04.504Z,100.00
2022-08-22T23:05:34.873Z,100.00
2022-08-22T23:08:04.486Z,100.00
2022-08-22T23:10:34.456Z,100.00
2022-08-22T23:13:06.429Z,100.00
2022-08-22T23:15:34.876Z,100.00
2022-08-22T23:18:03.313Z,100.00
2022-08-22T23:20:31.879Z,100.00
2022-08-22T23:23:00.519Z,100.00
2022-08-22T23:25:31.413Z,100.00
2022-08-22T23:28:00.195Z,100.00
2022-08-22T23:30:30.272Z,100.00
2022-08-22T23:32:58.767Z,100.00
2022-08-22T23:39:17.058Z,100.00
2022-08-22T23:41:46.750Z,100.00
2022-08-22T23:44:17.510Z,100.00
2022-08-22T23:46:48.095Z,100.00
2022-08-22T23:49:17.045Z,100.00
2022-08-22T23:51:46.865Z,100.00
2022-08-22T23:54:16.057Z,100.00
2022-08-22T23:56:47.972Z,100.00
2022-08-22T23:59:19.168Z,100.00
